PWSweather.com
Personal Weather Stations
Station Observations
UXOLA
Alcoy, AlcoyES

AlcoyAlcoyES

Lat: 38.70299, Lon: -0.48184

Elevation: 1935

Station Type: PCE FWS-20,

http://www.fiestasalcoy.xyz

High Low Average
Temperature 52.7°F11.5°C 31.1°F-0.5°C 46.0°F7.8°C
Dew Point 35.1°F1.7°C 23.8°F-4.6°C 31.5°F-0.3°C
Winds 9.8 mph 15.8 kmh Calm Calm 3.0 mph S4.8 kmh S
Wind Gusts 15.2 mph24.5 kmh 1.6 mph2.6 kmh 6.0 mph9.7 kmh
Humidity 74% 40% 58%
Pressure 30.03 in1016.9 mb 29.91 in1012.9 mb -
Precipitation 0.00 in0.0 mm - -
Hour Temp Dew Point Humidity Winds Wind Gusts Pressure Precip Precip Rate Daily Precip Total
08:45 AM 31.1°F-0.5°C 23.8°F-4.6°C 74% 0.7 mph SW1.1 kmh SW 2.2 mph3.5 kmh 29.93 in1013.5 mb 0.00 in0.0 mm 0.00 in0.0 mm 0.00 in0.0 mm
09:00 AM 32.0°F0.0°C 24.7°F-4.1°C 74% 1.6 mph SW2.6 kmh SW 2.2 mph3.5 kmh 29.93 in1013.5 mb 0.00 in0.0 mm 0.00 in0.0 mm 0.00 in0.0 mm
09:15 AM 33.1°F0.6°C 25.7°F-3.5°C 74% Calm Calm 1.6 mph2.6 kmh 29.94 in1013.9 mb 0.00 in0.0 mm 0.00 in0.0 mm 0.00 in0.0 mm
09:30 AM 35.4°F1.9°C 28.0°F-2.2°C 74% 0.7 mph SSE1.1 kmh SSE 1.6 mph2.6 kmh 29.94 in1013.9 mb 0.00 in0.0 mm 0.00 in0.0 mm 0.00 in0.0 mm
09:45 AM 37.8°F3.2°C 29.2°F-1.6°C 71% Calm Calm 2.2 mph3.5 kmh 29.94 in1013.9 mb 0.00 in0.0 mm 0.00 in0.0 mm 0.00 in0.0 mm
10:00 AM 40.1°F4.5°C 30.8°F-0.7°C 69% 0.7 mph SE1.1 kmh SE 2.2 mph3.5 kmh 29.94 in1013.9 mb 0.00 in0.0 mm 0.00 in0.0 mm 0.00 in0.0 mm
10:15 AM 41.0°F5.0°C 30.2°F-1.0°C 65% 0.7 mph E1.1 kmh E 3.8 mph6.1 kmh 29.95 in1014.2 mb 0.00 in0.0 mm 0.00 in0.0 mm 0.00 in0.0 mm
10:30 AM 41.9°F5.5°C 30.6°F-0.8°C 64% 1.6 mph ESE2.6 kmh ESE 3.1 mph5.0 kmh 29.95 in1014.2 mb 0.00 in0.0 mm 0.00 in0.0 mm 0.00 in0.0 mm
10:45 AM 43.2°F6.2°C 31.4°F-0.3°C 63% 1.6 mph E2.6 kmh E 3.8 mph6.1 kmh 29.95 in1014.2 mb 0.00 in0.0 mm 0.00 in0.0 mm 0.00 in0.0 mm
11:00 AM 44.4°F6.9°C 30.6°F-0.8°C 58% 1.6 mph E2.6 kmh E 3.1 mph5.0 kmh 29.94 in1013.9 mb 0.00 in0.0 mm 0.00 in0.0 mm 0.00 in0.0 mm
11:15 AM 45.5°F7.5°C 30.7°F-0.7°C 56% 1.6 mph E2.6 kmh E 3.1 mph5.0 kmh 29.95 in1014.2 mb 0.00 in0.0 mm 0.00 in0.0 mm 0.00 in0.0 mm
11:30 AM 46.8°F8.2°C 31.0°F-0.6°C 54% Calm Calm 3.8 mph6.1 kmh 29.95 in1014.2 mb 0.00 in0.0 mm 0.00 in0.0 mm 0.00 in0.0 mm
11:45 AM 47.5°F8.6°C 30.3°F-0.9°C 51% 1.6 mph ENE2.6 kmh ENE 4.5 mph7.2 kmh 29.95 in1014.2 mb 0.00 in0.0 mm 0.00 in0.0 mm 0.00 in0.0 mm
12:00 PM 48.2°F9.0°C 30.9°F-0.6°C 51% 2.2 mph E3.5 kmh E 5.4 mph8.7 kmh 29.95 in1014.2 mb 0.00 in0.0 mm 0.00 in0.0 mm 0.00 in0.0 mm
12:15 PM 48.6°F9.2°C 29.8°F-1.2°C 48% 1.6 mph ENE2.6 kmh ENE 5.4 mph8.7 kmh 29.94 in1013.9 mb 0.00 in0.0 mm 0.00 in0.0 mm 0.00 in0.0 mm
12:30 PM 49.5°F9.7°C 30.1°F-1.1°C 47% 3.8 mph SSW6.1 kmh SSW 5.4 mph8.7 kmh 29.95 in1014.2 mb 0.00 in0.0 mm 0.00 in0.0 mm 0.00 in0.0 mm
12:45 PM 50.4°F10.2°C 29.8°F-1.2°C 45% 4.5 mph NE7.2 kmh NE 7.6 mph12.2 kmh 29.94 in1013.9 mb 0.00 in0.0 mm 0.00 in0.0 mm 0.00 in0.0 mm
01:00 PM 50.7°F10.4°C 29.1°F-1.6°C 43% 1.6 mph SW2.6 kmh SW 6.0 mph9.7 kmh 29.94 in1013.9 mb 0.00 in0.0 mm 0.00 in0.0 mm 0.00 in0.0 mm
01:15 PM 50.9°F10.5°C 28.1°F-2.2°C 41% 3.1 mph WSW5.0 kmh WSW 6.0 mph9.7 kmh 29.94 in1013.9 mb 0.00 in0.0 mm 0.00 in0.0 mm 0.00 in0.0 mm
01:30 PM 51.1°F10.6°C 27.6°F-2.4°C 40% 1.6 mph ENE2.6 kmh ENE 9.2 mph14.8 kmh 29.93 in1013.5 mb 0.00 in0.0 mm 0.00 in0.0 mm 0.00 in0.0 mm
01:45 PM 51.8°F11.0°C 28.3°F-2.1°C 40% 3.8 mph WSW6.1 kmh WSW 7.6 mph12.2 kmh 29.93 in1013.5 mb 0.00 in0.0 mm 0.00 in0.0 mm 0.00 in0.0 mm
02:00 PM 52.0°F11.1°C 28.4°F-2.0°C 40% 2.2 mph WSW3.5 kmh WSW 7.6 mph12.2 kmh 29.93 in1013.5 mb 0.00 in0.0 mm 0.00 in0.0 mm 0.00 in0.0 mm
02:15 PM 51.1°F10.6°C 28.2°F-2.1°C 41% 6.9 mph SW11.1 kmh SW 9.2 mph14.8 kmh 29.93 in1013.5 mb 0.00 in0.0 mm 0.00 in0.0 mm 0.00 in0.0 mm
02:30 PM 50.5°F10.3°C 28.3°F-2.1°C 42% 5.4 mph ENE8.7 kmh ENE 6.9 mph11.1 kmh 29.93 in1013.5 mb 0.00 in0.0 mm 0.00 in0.0 mm 0.00 in0.0 mm
02:45 PM 50.4°F10.2°C 28.2°F-2.1°C 42% 3.8 mph NE6.1 kmh NE 6.9 mph11.1 kmh 29.92 in1013.2 mb 0.00 in0.0 mm 0.00 in0.0 mm 0.00 in0.0 mm
03:00 PM 51.1°F10.6°C 29.4°F-1.4°C 43% 3.1 mph W5.0 kmh W 4.5 mph7.2 kmh 29.92 in1013.2 mb 0.00 in0.0 mm 0.00 in0.0 mm 0.00 in0.0 mm
03:15 PM 52.2°F11.2°C 29.8°F-1.2°C 42% 3.1 mph WSW5.0 kmh WSW 6.0 mph9.7 kmh 29.91 in1012.9 mb 0.00 in0.0 mm 0.00 in0.0 mm 0.00 in0.0 mm
03:30 PM 51.6°F10.9°C 29.3°F-1.5°C 42% 4.5 mph SW7.2 kmh SW 7.6 mph12.2 kmh 29.91 in1012.9 mb 0.00 in0.0 mm 0.00 in0.0 mm 0.00 in0.0 mm
03:45 PM 52.7°F11.5°C 29.7°F-1.3°C 41% 4.5 mph W7.2 kmh W 5.4 mph8.7 kmh 29.91 in1012.9 mb 0.00 in0.0 mm 0.00 in0.0 mm 0.00 in0.0 mm
04:00 PM 51.4°F10.8°C 30.3°F-0.9°C 44% 1.6 mph WSW2.6 kmh WSW 8.3 mph13.4 kmh 29.91 in1012.9 mb 0.00 in0.0 mm 0.00 in0.0 mm 0.00 in0.0 mm
04:15 PM 50.9°F10.5°C 32.4°F0.2°C 49% 4.5 mph N7.2 kmh N 6.0 mph9.7 kmh 29.91 in1012.9 mb 0.00 in0.0 mm 0.00 in0.0 mm 0.00 in0.0 mm
04:30 PM 50.7°F10.4°C 32.8°F0.4°C 50% 3.8 mph NW6.1 kmh NW 6.0 mph9.7 kmh 29.91 in1012.9 mb 0.00 in0.0 mm 0.00 in0.0 mm 0.00 in0.0 mm
04:45 PM 50.7°F10.4°C 32.8°F0.4°C 50% 2.2 mph E3.5 kmh E 5.4 mph8.7 kmh 29.92 in1013.2 mb 0.00 in0.0 mm 0.00 in0.0 mm 0.00 in0.0 mm
05:00 PM 51.1°F10.6°C 33.6°F0.9°C 51% 1.6 mph ESE2.6 kmh ESE 9.8 mph15.8 kmh 29.92 in1013.2 mb 0.00 in0.0 mm 0.00 in0.0 mm 0.00 in0.0 mm
05:15 PM 52.0°F11.1°C 32.9°F0.5°C 48% 3.8 mph SW6.1 kmh SW 5.4 mph8.7 kmh 29.92 in1013.2 mb 0.00 in0.0 mm 0.00 in0.0 mm 0.00 in0.0 mm
05:30 PM 51.6°F10.9°C 33.6°F0.9°C 50% 8.3 mph SW13.4 kmh SW 10.7 mph17.2 kmh 29.93 in1013.5 mb 0.00 in0.0 mm 0.00 in0.0 mm 0.00 in0.0 mm
05:45 PM 51.1°F10.6°C 34.1°F1.2°C 52% 5.4 mph SW8.7 kmh SW 7.6 mph12.2 kmh 29.93 in1013.5 mb 0.00 in0.0 mm 0.00 in0.0 mm 0.00 in0.0 mm
06:00 PM 49.6°F9.8°C 34.1°F1.2°C 55% 1.6 mph NW2.6 kmh NW 7.6 mph12.2 kmh 29.94 in1013.9 mb 0.00 in0.0 mm 0.00 in0.0 mm 0.00 in0.0 mm
06:15 PM 48.0°F8.9°C 34.4°F1.3°C 59% 4.5 mph WSW7.2 kmh WSW 9.2 mph14.8 kmh 29.93 in1013.5 mb 0.00 in0.0 mm 0.00 in0.0 mm 0.00 in0.0 mm
06:30 PM 47.1°F8.4°C 34.0°F1.1°C 60% 3.8 mph WSW6.1 kmh WSW 8.3 mph13.4 kmh 29.94 in1013.9 mb 0.00 in0.0 mm 0.00 in0.0 mm 0.00 in0.0 mm
06:45 PM 46.6°F8.1°C 33.9°F1.1°C 61% 1.6 mph W2.6 kmh W 5.4 mph8.7 kmh 29.94 in1013.9 mb 0.00 in0.0 mm 0.00 in0.0 mm 0.00 in0.0 mm
07:00 PM 46.0°F7.8°C 33.8°F1.0°C 62% 1.6 mph NW2.6 kmh NW 2.2 mph3.5 kmh 29.95 in1014.2 mb 0.00 in0.0 mm 0.00 in0.0 mm 0.00 in0.0 mm
07:15 PM 45.1°F7.3°C 32.9°F0.5°C 62% Calm Calm 2.2 mph3.5 kmh 29.96 in1014.6 mb 0.00 in0.0 mm 0.00 in0.0 mm 0.00 in0.0 mm
07:30 PM 44.6°F7.0°C 32.8°F0.4°C 63% 0.7 mph ENE1.1 kmh ENE 3.1 mph5.0 kmh 29.96 in1014.6 mb 0.00 in0.0 mm 0.00 in0.0 mm 0.00 in0.0 mm
08:00 PM 44.1°F6.7°C 33.1°F0.6°C 65% 0.7 mph ESE1.1 kmh ESE 2.2 mph3.5 kmh 29.97 in1014.9 mb 0.00 in0.0 mm 0.00 in0.0 mm 0.00 in0.0 mm
08:15 PM 44.1°F6.7°C 33.4°F0.8°C 66% 2.2 mph WNW3.5 kmh WNW 4.5 mph7.2 kmh 29.98 in1015.2 mb 0.00 in0.0 mm 0.00 in0.0 mm 0.00 in0.0 mm
08:30 PM 44.1°F6.7°C 33.4°F0.8°C 66% 1.6 mph WSW2.6 kmh WSW 6.9 mph11.1 kmh 29.98 in1015.2 mb 0.00 in0.0 mm 0.00 in0.0 mm 0.00 in0.0 mm
08:45 PM 44.1°F6.7°C 33.8°F1.0°C 67% 3.8 mph WSW6.1 kmh WSW 6.9 mph11.1 kmh 29.98 in1015.2 mb 0.00 in0.0 mm 0.00 in0.0 mm 0.00 in0.0 mm
09:00 PM 43.7°F6.5°C 34.9°F1.6°C 71% 3.1 mph SW5.0 kmh SW 6.0 mph9.7 kmh 29.99 in1015.6 mb 0.00 in0.0 mm 0.00 in0.0 mm 0.00 in0.0 mm
09:15 PM 43.2°F6.2°C 34.4°F1.3°C 71% 2.2 mph WSW3.5 kmh WSW 6.0 mph9.7 kmh 29.98 in1015.2 mb 0.00 in0.0 mm 0.00 in0.0 mm 0.00 in0.0 mm
09:30 PM 43.0°F6.1°C 34.2°F1.2°C 71% 4.5 mph SW7.2 kmh SW 7.6 mph12.2 kmh 29.98 in1015.2 mb 0.00 in0.0 mm 0.00 in0.0 mm 0.00 in0.0 mm
09:45 PM 43.3°F6.3°C 34.6°F1.4°C 71% 5.4 mph WSW8.7 kmh WSW 6.9 mph11.1 kmh 29.99 in1015.6 mb 0.00 in0.0 mm 0.00 in0.0 mm 0.00 in0.0 mm
10:00 PM 43.3°F6.3°C 34.6°F1.4°C 71% 9.8 mph WSW15.8 kmh WSW 10.7 mph17.2 kmh 30.00 in1015.9 mb 0.00 in0.0 mm 0.00 in0.0 mm 0.00 in0.0 mm
10:15 PM 43.2°F6.2°C 34.8°F1.6°C 72% 1.6 mph SW2.6 kmh SW 15.2 mph24.5 kmh 30.01 in1016.3 mb 0.00 in0.0 mm 0.00 in0.0 mm 0.00 in0.0 mm
10:30 PM 42.8°F6.0°C 34.8°F1.6°C 73% 5.4 mph WSW8.7 kmh WSW 9.8 mph15.8 kmh 30.02 in1016.6 mb 0.00 in0.0 mm 0.00 in0.0 mm 0.00 in0.0 mm
10:45 PM 42.6°F5.9°C 34.9°F1.6°C 74% 8.3 mph WSW13.4 kmh WSW 11.4 mph18.3 kmh 30.01 in1016.3 mb 0.00 in0.0 mm 0.00 in0.0 mm 0.00 in0.0 mm
11:00 PM 42.8°F6.0°C 35.1°F1.7°C 74% 4.5 mph WSW7.2 kmh WSW 13.0 mph20.9 kmh 30.02 in1016.6 mb 0.00 in0.0 mm 0.00 in0.0 mm 0.00 in0.0 mm
11:15 PM 42.8°F6.0°C 34.8°F1.6°C 73% 6.0 mph W9.7 kmh W 12.1 mph19.5 kmh 30.02 in1016.6 mb 0.00 in0.0 mm 0.00 in0.0 mm 0.00 in0.0 mm
11:30 PM 42.6°F5.9°C 34.6°F1.4°C 73% 9.8 mph WSW15.8 kmh WSW 11.4 mph18.3 kmh 30.02 in1016.6 mb 0.00 in0.0 mm 0.00 in0.0 mm 0.00 in0.0 mm
11:45 PM 42.6°F5.9°C 34.9°F1.6°C 74% 7.6 mph WSW12.2 kmh WSW 14.5 mph23.3 kmh 30.03 in1016.9 mb 0.00 in0.0 mm 0.00 in0.0 mm 0.00 in0.0 mm